Time;durP1;ratioP1;P1;durP2;ratioP2;P2;SDS_P1;SDS_P2;PMS_P1;PMS_P2;Temp;Humidity;BMP_temperature;BMP_pressure;BME280_temperature;BME280_humidity;BME280_pressure;Samples;Min_cycle;Max_cycle;Signal;HPM_P1;HPM_P2
2021/09/08 00:01:18;;;;;;;31.00;17.77;;;9.80;99.90;;;;;;5083011;28;20056;-88
2021/09/08 00:03:44;;;;;;;25.33;16.90;;;9.70;99.90;;;;;;5072851;28;20049;-88
2021/09/08 00:06:12;;;;;;;27.50;17.10;;;9.60;99.90;;;;;;5058850;28;20052;-88
2021/09/08 00:08:39;;;;;;;26.58;16.83;;;9.70;99.90;;;;;;5058747;28;20486;-89
2021/09/08 00:11:05;;;;;;;27.80;16.80;;;9.80;99.90;;;;;;5058856;28;20517;-89
2021/09/08 00:13:32;;;;;;;26.58;16.15;;;9.80;99.90;;;;;;5058932;28;20049;-88
2021/09/08 00:15:59;;;;;;;26.42;16.05;;;9.80;99.90;;;;;;5058803;28;20056;-88
2021/09/08 00:18:26;;;;;;;29.45;18.02;;;9.70;99.90;;;;;;5059005;28;20500;-88
2021/09/08 00:20:52;;;;;;;27.30;15.93;;;9.60;99.90;;;;;;5058295;28;20048;-89
2021/09/08 00:23:19;;;;;;;23.70;16.77;;;9.60;99.90;;;;;;5058602;28;20553;-89
2021/09/08 00:25:46;;;;;;;25.13;16.52;;;9.60;99.90;;;;;;5058734;28;20493;-89
2021/09/08 00:28:13;;;;;;;25.17;15.23;;;9.40;99.90;;;;;;5058598;28;20044;-89
2021/09/08 00:30:39;;;;;;;28.35;17.42;;;9.30;99.90;;;;;;5054804;28;20515;-89
2021/09/08 00:33:06;;;;;;;24.85;16.50;;;9.30;99.90;;;;;;5055899;28;20053;-88
2021/09/08 00:35:33;;;;;;;23.52;16.23;;;9.30;99.90;;;;;;5055054;28;20052;-88
2021/09/08 00:38:00;;;;;;;25.05;17.42;;;9.30;99.90;;;;;;5054839;28;20470;-88
2021/09/08 00:40:26;;;;;;;32.80;18.88;;;9.20;99.90;;;;;;5055162;28;20505;-89
2021/09/08 00:42:53;;;;;;;34.20;19.45;;;9.10;99.90;;;;;;5065680;28;20199;-88
2021/09/08 00:45:20;;;;;;;28.60;17.38;;;9.10;99.90;;;;;;5058570;28;20056;-89
2021/09/08 00:47:48;;;;;;;31.90;18.60;;;9.10;99.90;;;;;;5055668;28;20059;-89
2021/09/08 00:50:14;;;;;;;25.58;18.10;;;9.10;99.90;;;;;;5054539;28;20065;-89
2021/09/08 00:52:41;;;;;;;29.80;17.92;;;9.20;99.90;;;;;;5054641;28;20131;-89
2021/09/08 00:55:10;;;;;;;25.42;17.38;;;9.30;99.90;;;;;;5054297;28;20155;-89
2021/09/08 00:57:37;;;;;;;25.50;17.30;;;9.30;99.90;;;;;;5054675;28;20044;-89
2021/09/08 01:00:05;;;;;;;24.67;16.88;;;9.30;99.90;;;;;;5054585;28;20131;-88
2021/09/08 01:02:31;;;;;;;28.30;17.20;;;9.40;99.90;;;;;;5054534;28;20051;-88
2021/09/08 01:04:58;;;;;;;30.75;17.08;;;9.40;99.90;;;;;;5054362;28;20098;-89
2021/09/08 01:07:26;;;;;;;31.65;18.77;;;9.30;99.90;;;;;;5054405;28;20049;-89
2021/09/08 01:09:53;;;;;;;27.45;16.42;;;9.30;99.90;;;;;;5054312;28;20141;-89
2021/09/08 01:12:19;;;;;;;30.52;17.30;;;9.30;99.90;;;;;;5054189;28;20049;-89
2021/09/08 01:14:46;;;;;;;24.20;15.93;;;9.20;99.90;;;;;;5054514;28;20052;-89
2021/09/08 01:17:17;;;;;;;26.80;16.15;;;9.20;99.90;;;;;;5055410;28;20049;-88
2021/09/08 01:19:44;;;;;;;20.58;14.57;;;9.10;99.90;;;;;;5076272;28;20104;-89
2021/09/08 01:22:11;;;;;;;25.13;15.38;;;9.10;99.90;;;;;;5069297;28;20064;-89
2021/09/08 01:24:40;;;;;;;20.60;15.27;;;9.00;99.90;;;;;;5054097;28;20128;-89
2021/09/08 01:27:07;;;;;;;29.50;17.33;;;8.80;99.90;;;;;;5054270;28;20045;-89
2021/09/08 01:29:34;;;;;;;31.23;17.38;;;8.80;99.90;;;;;;5053791;28;20060;-89
2021/09/08 01:32:01;;;;;;;27.25;16.50;;;8.80;99.90;;;;;;5053985;28;20060;-89
2021/09/08 01:34:28;;;;;;;29.05;17.67;;;8.80;99.90;;;;;;5054220;28;20081;-89
2021/09/08 01:36:55;;;;;;;27.38;16.63;;;8.70;99.90;;;;;;5053902;28;20044;-89
2021/09/08 01:39:24;;;;;;;24.77;15.85;;;8.70;99.90;;;;;;5053575;28;20049;-88
2021/09/08 01:41:51;;;;;;;28.15;17.08;;;8.70;99.90;;;;;;5053890;28;20139;-89
2021/09/08 01:44:22;;;;;;;24.27;15.98;;;8.70;99.90;;;;;;5053652;28;20049;-89
2021/09/08 01:46:54;;;;;;;26.38;16.00;;;8.70;99.90;;;;;;5053824;28;20051;-89
2021/09/08 01:49:22;;;;;;;27.02;16.77;;;8.70;99.90;;;;;;5053851;28;20051;-89
2021/09/08 01:51:49;;;;;;;23.13;16.02;;;8.70;99.90;;;;;;5053613;28;20055;-89
2021/09/08 01:54:16;;;;;;;28.02;16.88;;;8.70;99.90;;;;;;5053544;28;20049;-88
2021/09/08 01:56:42;;;;;;;26.25;17.35;;;8.70;99.90;;;;;;5053163;28;20343;-88
2021/09/08 01:59:09;;;;;;;27.38;17.55;;;8.80;99.90;;;;;;5053259;28;20052;-88
2021/09/08 02:01:36;;;;;;;23.10;16.88;;;8.80;99.90;;;;;;5054093;28;20060;-90
2021/09/08 02:04:03;;;;;;;26.50;15.93;;;8.80;99.90;;;;;;5053216;28;20041;-89
2021/09/08 02:06:30;;;;;;;26.35;16.65;;;8.80;99.90;;;;;;5053347;28;20052;-90
2021/09/08 02:08:59;;;;;;;22.40;15.18;;;8.90;99.90;;;;;;5054899;28;20137;-89
2021/09/08 02:11:26;;;;;;;29.63;16.35;;;8.90;99.90;;;;;;5053262;28;20049;-89
2021/09/08 02:13:53;;;;;;;21.58;15.30;;;8.90;99.90;;;;;;5053214;28;20052;-90
2021/09/08 02:16:21;;;;;;;23.60;14.35;;;8.90;99.90;;;;;;5053013;28;20055;-89
2021/09/08 02:18:49;;;;;;;23.35;15.15;;;8.90;99.90;;;;;;5053048;28;20139;-89
2021/09/08 02:21:17;;;;;;;22.45;14.65;;;8.90;99.90;;;;;;5053149;28;20482;-90
2021/09/08 02:23:43;;;;;;;18.85;14.15;;;8.80;99.90;;;;;;5053256;28;20056;-90
2021/09/08 02:26:10;;;;;;;19.67;14.50;;;8.70;99.90;;;;;;5052848;28;20516;-90
2021/09/08 02:28:37;;;;;;;23.40;15.50;;;8.70;99.90;;;;;;5055576;28;20132;-90
2021/09/08 02:31:04;;;;;;;33.78;16.08;;;8.50;99.90;;;;;;5056120;28;20473;-90
2021/09/08 02:33:32;;;;;;;20.35;14.20;;;8.40;99.90;;;;;;5056627;28;20051;-89
2021/09/08 02:35:59;;;;;;;37.63;17.60;;;8.50;99.90;;;;;;5058137;28;20116;-89
2021/09/08 02:38:27;;;;;;;26.88;16.13;;;8.40;99.90;;;;;;5078464;28;20048;-90
2021/09/08 02:40:54;;;;;;;32.78;17.58;;;8.40;99.90;;;;;;5069454;28;20464;-89
2021/09/08 02:43:20;;;;;;;29.80;17.33;;;8.30;99.90;;;;;;5056183;28;20049;-90
2021/09/08 02:45:47;;;;;;;26.27;17.08;;;8.20;99.90;;;;;;5073426;28;20060;-89
2021/09/08 02:48:14;;;;;;;30.25;17.70;;;8.20;99.90;;;;;;5055718;28;20045;-90
2021/09/08 02:50:41;;;;;;;29.33;17.63;;;8.20;99.90;;;;;;5055345;28;20132;-90
2021/09/08 02:53:07;;;;;;;25.65;16.05;;;8.20;99.90;;;;;;5055261;28;20477;-90
2021/09/08 02:55:34;;;;;;;23.23;15.90;;;8.10;99.90;;;;;;5056101;28;20051;-90
2021/09/08 02:58:01;;;;;;;26.10;17.33;;;8.20;99.90;;;;;;5055990;28;20131;-89
2021/09/08 03:00:28;;;;;;;23.60;15.95;;;8.20;99.90;;;;;;5056509;28;20104;-90
2021/09/08 03:02:55;;;;;;;26.98;16.05;;;8.20;99.90;;;;;;5068253;28;20079;-90
2021/09/08 03:05:22;;;;;;;27.58;16.38;;;8.20;99.90;;;;;;5061699;28;20585;-90
2021/09/08 03:07:49;;;;;;;25.80;16.52;;;8.20;99.90;;;;;;5055799;28;20382;-90
2021/09/08 03:10:15;;;;;;;27.92;16.35;;;8.10;99.90;;;;;;5055800;28;20071;-89
2021/09/08 03:12:42;;;;;;;27.83;16.65;;;8.20;99.90;;;;;;5055810;28;20135;-89
2021/09/08 03:15:09;;;;;;;26.35;16.67;;;8.20;99.90;;;;;;5055658;28;20076;-90
2021/09/08 03:17:37;;;;;;;29.42;17.67;;;8.10;99.90;;;;;;5056518;28;20148;-90
2021/09/08 03:20:06;;;;;;;30.08;16.73;;;8.10;99.90;;;;;;5057274;28;20550;-89
2021/09/08 03:22:33;;;;;;;33.72;18.75;;;8.10;99.90;;;;;;5056684;28;20045;-89
2021/09/08 03:24:59;;;;;;;27.92;17.60;;;8.20;99.90;;;;;;5055862;28;20118;-90
2021/09/08 03:27:26;;;;;;;28.48;18.10;;;8.20;99.90;;;;;;5055824;28;20044;-90
2021/09/08 03:29:53;;;;;;;28.35;16.98;;;8.20;99.90;;;;;;5055352;28;20053;-90
2021/09/08 03:32:20;;;;;;;31.85;18.67;;;8.20;99.90;;;;;;5055536;28;20400;-89
2021/09/08 03:34:46;;;;;;;24.98;15.95;;;8.10;99.90;;;;;;5055932;28;20143;-90
2021/09/08 03:37:13;;;;;;;23.63;16.23;;;8.20;99.90;;;;;;5057469;28;20116;-89
2021/09/08 03:39:40;;;;;;;28.63;17.02;;;8.20;99.90;;;;;;5055921;28;20049;-90
2021/09/08 03:42:06;;;;;;;28.98;17.90;;;8.30;99.90;;;;;;5055923;28;20040;-89
2021/09/08 03:44:33;;;;;;;24.42;15.75;;;8.20;99.90;;;;;;5055698;28;20136;-90
2021/09/08 03:47:00;;;;;;;32.05;17.98;;;8.20;99.90;;;;;;5055346;28;20515;-90
2021/09/08 03:49:27;;;;;;;34.08;18.13;;;8.10;99.90;;;;;;5057368;28;20048;-89
2021/09/08 03:52:07;;;;;;;29.55;17.38;;;8.10;99.90;;;;;;5057142;28;20052;-90
2021/09/08 03:54:35;;;;;;;27.48;16.00;;;8.10;99.90;;;;;;5056569;28;20112;-90
2021/09/08 03:57:02;;;;;;;22.98;15.18;;;8.20;99.90;;;;;;5077172;28;20053;-89
2021/09/08 03:59:29;;;;;;;22.77;15.50;;;8.20;99.90;;;;;;5070700;28;20568;-90
2021/09/08 04:01:56;;;;;;;25.67;15.55;;;8.20;99.90;;;;;;5055349;28;20078;-90
2021/09/08 04:04:23;;;;;;;25.60;16.38;;;8.10;99.90;;;;;;5060352;28;20048;-90
2021/09/08 04:06:50;;;;;;;28.38;15.63;;;8.00;99.90;;;;;;5059122;28;20473;-89
2021/09/08 04:09:29;;;;;;;22.58;15.18;;;8.00;99.90;;;;;;5060910;28;20048;-90
2021/09/08 04:11:56;;;;;;;25.25;15.75;;;8.00;99.90;;;;;;5058797;28;20049;-90
2021/09/08 04:14:23;;;;;;;29.40;16.27;;;8.00;99.90;;;;;;5059081;28;20049;-90
2021/09/08 04:16:49;;;;;;;21.35;14.93;;;8.00;99.90;;;;;;5058691;28;20052;-90
2021/09/08 04:19:16;;;;;;;27.25;16.42;;;8.00;99.90;;;;;;5059041;28;20131;-90
2021/09/08 04:21:43;;;;;;;25.55;15.88;;;8.00;99.90;;;;;;5059112;28;20116;-90
2021/09/08 04:24:10;;;;;;;25.80;16.63;;;7.90;99.90;;;;;;5058965;28;20040;-90
2021/09/08 04:26:37;;;;;;;31.40;17.60;;;8.00;99.90;;;;;;5058665;28;20052;-90
2021/09/08 04:29:03;;;;;;;21.00;14.75;;;7.90;99.90;;;;;;5058458;28;20139;-90
2021/09/08 04:31:30;;;;;;;24.67;15.90;;;7.90;99.90;;;;;;5058316;28;20048;-90
2021/09/08 04:33:57;;;;;;;24.92;15.65;;;8.00;99.90;;;;;;5058259;28;20040;-89
2021/09/08 04:36:23;;;;;;;24.50;15.45;;;7.90;99.90;;;;;;5058723;28;20135;-89
2021/09/08 04:38:50;;;;;;;27.45;16.33;;;7.80;99.90;;;;;;5058447;28;20053;-90
2021/09/08 04:41:17;;;;;;;26.05;16.50;;;7.80;99.90;;;;;;5058459;28;20412;-90
2021/09/08 04:43:44;;;;;;;27.88;16.50;;;7.80;99.90;;;;;;5058406;28;20052;-90
2021/09/08 04:46:11;;;;;;;28.83;17.17;;;7.70;99.90;;;;;;5058444;28;20070;-90
2021/09/08 04:48:37;;;;;;;34.22;17.55;;;7.70;99.90;;;;;;5058364;28;20045;-90
2021/09/08 04:51:04;;;;;;;32.67;17.83;;;7.70;99.90;;;;;;5057867;28;20052;-91
2021/09/08 04:53:31;;;;;;;26.48;16.77;;;7.70;99.90;;;;;;5058281;28;20044;-91
2021/09/08 04:55:57;;;;;;;29.45;17.50;;;7.70;99.90;;;;;;5057764;28;20462;-90
2021/09/08 04:58:24;;;;;;;29.98;18.50;;;7.80;99.90;;;;;;5058826;28;20055;-91
2021/09/08 05:00:51;;;;;;;26.48;17.92;;;7.80;99.90;;;;;;5058048;28;20048;-90
2021/09/08 05:03:18;;;;;;;31.92;19.00;;;7.90;99.90;;;;;;5059350;28;20126;-90
2021/09/08 05:05:45;;;;;;;26.30;17.48;;;8.00;99.90;;;;;;5057734;28;20064;-90
2021/09/08 05:08:12;;;;;;;27.48;18.05;;;8.00;99.90;;;;;;5057781;28;20453;-90
2021/09/08 05:10:39;;;;;;;30.98;18.23;;;8.00;99.90;;;;;;5058096;28;20062;-90
2021/09/08 05:13:05;;;;;;;29.85;18.20;;;8.00;99.90;;;;;;5060126;28;20044;-90
2021/09/08 05:15:32;;;;;;;29.95;18.40;;;8.00;99.90;;;;;;5076989;28;20052;-90
2021/09/08 05:17:59;;;;;;;34.10;20.58;;;8.00;99.90;;;;;;5077111;28;20136;-90
2021/09/08 05:20:26;;;;;;;41.97;22.33;;;8.00;99.90;;;;;;5058153;28;20114;-90
2021/09/08 05:22:53;;;;;;;37.50;20.85;;;8.10;99.90;;;;;;5063925;28;20108;-90
2021/09/08 05:25:20;;;;;;;41.83;22.42;;;8.10;99.90;;;;;;5071284;28;20135;-90
2021/09/08 05:27:47;;;;;;;45.97;24.00;;;8.10;99.90;;;;;;5057628;28;20500;-91
2021/09/08 05:30:13;;;;;;;43.70;25.90;;;8.10;99.90;;;;;;5057018;28;20444;-91
2021/09/08 05:32:40;;;;;;;49.28;24.90;;;8.20;99.90;;;;;;5056901;28;20053;-91
2021/09/08 05:35:12;;;;;;;56.58;27.63;;;8.30;99.90;;;;;;5057079;28;20051;-91
2021/09/08 05:37:40;;;;;;;48.45;26.80;;;8.40;99.90;;;;;;5055875;28;20052;-91
2021/09/08 05:40:11;;;;;;;64.20;31.55;;;8.50;99.90;;;;;;5056502;28;20059;-91
2021/09/08 05:42:38;;;;;;;88.78;38.55;;;8.70;99.90;;;;;;5056828;28;20128;-91
2021/09/08 05:45:05;;;;;;;89.78;40.45;;;8.90;99.90;;;;;;5056641;28;20058;-91
2021/09/08 05:47:33;;;;;;;78.93;40.90;;;9.20;99.90;;;;;;5056212;28;20058;-91
2021/09/08 05:49:59;;;;;;;73.10;39.50;;;9.80;99.90;;;;;;5055015;28;20071;-91
2021/09/08 05:52:26;;;;;;;64.05;36.67;;;10.50;99.90;;;;;;5055179;28;20056;-91
2021/09/08 05:54:53;;;;;;;49.20;28.98;;;10.50;99.90;;;;;;5054924;28;20053;-91
2021/09/08 05:57:19;;;;;;;34.72;24.63;;;10.80;99.90;;;;;;5055361;28;20116;-92
2021/09/08 05:59:46;;;;;;;32.25;22.23;;;11.20;99.90;;;;;;5055388;28;20044;-91
2021/09/08 06:02:13;;;;;;;28.35;19.92;;;11.40;99.90;;;;;;5056167;28;20131;-90
2021/09/08 06:04:40;;;;;;;25.10;18.30;;;11.40;99.90;;;;;;5056665;28;20118;-92
2021/09/08 06:07:07;;;;;;;19.10;15.20;;;11.20;99.90;;;;;;5056261;28;20131;-91
2021/09/08 06:09:33;;;;;;;20.67;12.48;;;11.00;99.90;;;;;;5056915;28;20048;-91
2021/09/08 06:12:00;;;;;;;13.45;10.10;;;11.30;99.90;;;;;;5056613;28;20048;-91
2021/09/08 06:14:27;;;;;;;16.00;11.25;;;11.60;99.90;;;;;;5056715;28;20158;-91
2021/09/08 06:16:54;;;;;;;20.88;11.93;;;12.00;99.90;;;;;;5056292;28;20136;-91
2021/09/08 06:19:21;;;;;;;23.35;13.43;;;12.40;99.90;;;;;;5056334;28;20053;-91
2021/09/08 06:21:47;;;;;;;31.17;14.85;;;12.50;99.90;;;;;;5056558;28;20570;-91
2021/09/08 06:24:14;;;;;;;19.67;13.15;;;12.60;99.90;;;;;;5056511;28;20147;-91
2021/09/08 06:26:41;;;;;;;22.67;12.85;;;12.90;99.90;;;;;;5056160;28;20079;-90
2021/09/08 06:29:08;;;;;;;27.92;14.25;;;13.00;99.90;;;;;;5056251;28;20052;-90
2021/09/08 06:31:35;;;;;;;47.53;15.43;;;12.90;99.90;;;;;;5056625;28;20473;-90
2021/09/08 06:34:02;;;;;;;34.85;15.55;;;12.90;99.90;;;;;;5070269;28;20032;-91
2021/09/08 06:36:29;;;;;;;42.55;17.30;;;13.00;99.90;;;;;;5080210;28;20032;-90
2021/09/08 06:38:55;;;;;;;22.40;13.10;;;13.10;99.90;;;;;;5056172;28;20048;-90
2021/09/08 06:41:22;;;;;;;23.35;13.45;;;13.20;99.90;;;;;;5056505;28;20135;-90
2021/09/08 06:43:49;;;;;;;18.50;11.80;;;13.40;99.90;;;;;;5056328;28;20131;-90
2021/09/08 06:46:16;;;;;;;27.48;12.63;;;13.60;99.90;;;;;;5056040;28;20051;-90
2021/09/08 06:48:43;;;;;;;25.10;12.55;;;13.90;99.90;;;;;;5055884;28;20464;-90
2021/09/08 06:51:10;;;;;;;18.80;10.68;;;14.00;99.90;;;;;;5056182;28;20144;-90
2021/09/08 06:53:38;;;;;;;30.50;12.77;;;14.10;99.90;;;;;;5056360;28;20044;-89
2021/09/08 06:56:06;;;;;;;26.65;11.35;;;14.10;99.90;;;;;;5056007;28;20063;-89
2021/09/08 06:58:33;;;;;;;25.35;11.32;;;14.20;99.90;;;;;;5056117;28;20079;-89
2021/09/08 07:01:00;;;;;;;26.10;11.30;;;14.20;99.90;;;;;;5056025;28;20061;-90
2021/09/08 07:03:27;;;;;;;26.95;12.93;;;14.50;99.90;;;;;;5056051;28;20036;-89
2021/09/08 07:05:54;;;;;;;25.95;11.27;;;14.60;99.90;;;;;;5056180;28;20481;-90
2021/09/08 07:08:21;;;;;;;16.75;9.98;;;14.80;99.90;;;;;;5055912;28;20136;-90
2021/09/08 07:10:51;;;;;;;15.52;9.77;;;14.70;99.90;;;;;;5056301;28;20049;-90
2021/09/08 07:13:18;;;;;;;19.55;11.93;;;15.00;99.90;;;;;;5056032;28;20143;-89
2021/09/08 07:15:45;;;;;;;32.70;12.90;;;15.10;99.90;;;;;;5055878;28;20048;-90
2021/09/08 07:18:12;;;;;;;31.35;12.57;;;15.40;99.90;;;;;;5056094;28;20489;-89
2021/09/08 07:20:40;;;;;;;33.00;13.60;;;15.80;99.90;;;;;;5056000;28;20131;-90
2021/09/08 07:23:08;;;;;;;28.90;13.00;;;16.20;99.90;;;;;;5055822;28;20579;-89
2021/09/08 07:25:35;;;;;;;37.50;12.90;;;16.50;99.90;;;;;;5055736;28;20544;-90
2021/09/08 07:28:03;;;;;;;48.67;14.43;;;16.80;99.90;;;;;;5055608;28;20169;-89
2021/09/08 07:30:30;;;;;;;40.35;13.00;;;17.10;99.90;;;;;;5055132;28;20140;-90
2021/09/08 07:32:56;;;;;;;29.55;12.45;;;17.20;99.90;;;;;;5055586;28;20143;-89
2021/09/08 07:35:23;;;;;;;20.85;9.82;;;17.60;99.90;;;;;;5055528;28;20044;-89
2021/09/08 07:37:50;;;;;;;16.95;9.48;;;18.10;99.90;;;;;;5056944;28;20083;-90
2021/09/08 07:40:18;;;;;;;27.50;11.15;;;18.80;99.90;;;;;;5059763;28;20493;-90
2021/09/08 07:42:46;;;;;;;28.75;11.68;;;19.90;99.90;;;;;;5042638;28;20045;-87
2021/09/08 07:45:13;;;;;;;25.92;10.93;;;21.00;99.90;;;;;;5060336;28;20059;-88
2021/09/08 07:47:39;;;;;;;28.48;10.52;;;21.40;99.90;;;;;;5061927;28;20051;-88
2021/09/08 07:50:07;;;;;;;28.08;12.63;;;22.10;99.90;;;;;;5059690;28;20102;-87
2021/09/08 07:52:34;;;;;;;32.70;12.02;;;23.00;99.90;;;;;;5067368;28;20072;-87
2021/09/08 07:55:02;;;;;;;28.88;10.57;;;23.70;99.90;;;;;;5083038;28;20028;-88
2021/09/08 07:57:30;;;;;;;39.28;11.43;;;24.20;99.90;;;;;;5064385;28;20079;-89
2021/09/08 07:59:57;;;;;;;24.23;9.88;;;25.00;99.90;;;;;;5059297;28;20048;-88
2021/09/08 08:02:23;;;;;;;23.63;10.23;;;25.80;98.40;;;;;;5059240;28;20055;-89
2021/09/08 08:04:50;;;;;;;26.98;10.13;;;26.50;94.70;;;;;;5059071;28;20048;-88
2021/09/08 08:07:18;;;;;;;19.70;9.00;;;27.30;91.20;;;;;;5059203;28;20044;-89
2021/09/08 08:09:44;;;;;;;19.15;9.38;;;27.40;90.90;;;;;;5059187;28;20052;-88
2021/09/08 08:12:11;;;;;;;21.15;10.10;;;28.20;86.70;;;;;;5059207;28;20059;-88
2021/09/08 08:14:38;;;;;;;14.95;9.25;;;28.00;84.60;;;;;;5059260;28;20050;-86
2021/09/08 08:17:06;;;;;;;16.52;9.55;;;28.50;82.70;;;;;;5059103;28;20056;-88
2021/09/08 08:19:33;;;;;;;13.77;8.73;;;28.60;82.10;;;;;;5059293;28;20040;-87
2021/09/08 08:22:00;;;;;;;11.23;8.88;;;29.10;79.60;;;;;;5057735;28;20140;-88
2021/09/08 08:24:27;;;;;;;16.50;9.13;;;29.70;78.00;;;;;;5058732;28;20470;-87
2021/09/08 08:26:54;;;;;;;14.50;9.05;;;30.60;77.20;;;;;;5075997;28;20054;-88
2021/09/08 08:29:21;;;;;;;15.40;9.35;;;29.70;79.60;;;;;;5058253;28;20068;-88
2021/09/08 08:31:47;;;;;;;22.17;9.65;;;30.40;74.10;;;;;;5058361;28;20056;-88
2021/09/08 08:34:15;;;;;;;13.90;9.10;;;30.30;75.50;;;;;;5058465;28;20048;-88
2021/09/08 08:36:42;;;;;;;14.20;8.70;;;31.10;74.80;;;;;;5058219;28;20059;-86
2021/09/08 08:39:09;;;;;;;19.67;9.45;;;30.10;76.70;;;;;;5058258;28;20509;-88
2021/09/08 08:41:35;;;;;;;9.75;8.38;;;31.20;74.90;;;;;;5058158;28;20075;-90
2021/09/08 08:44:04;;;;;;;13.15;8.15;;;31.80;73.50;;;;;;5058110;28;20048;-88
2021/09/08 08:46:31;;;;;;;11.35;8.02;;;32.10;71.40;;;;;;5057936;28;20061;-88
2021/09/08 08:48:58;;;;;;;11.55;8.13;;;32.70;70.10;;;;;;5074272;28;20045;-87
2021/09/08 08:51:25;;;;;;;13.02;8.63;;;32.50;69.30;;;;;;5057873;28;20046;-88
2021/09/08 08:53:52;;;;;;;10.88;7.90;;;30.50;73.10;;;;;;5057874;28;20054;-87
2021/09/08 08:56:20;;;;;;;13.30;7.53;;;32.00;71.90;;;;;;5057842;28;20049;-88
2021/09/08 08:58:47;;;;;;;12.57;8.20;;;33.30;66.90;;;;;;5057911;28;20051;-86
2021/09/08 09:01:19;;;;;;;11.20;7.55;;;33.90;66.00;;;;;;5057897;28;20048;-88
2021/09/08 09:04:02;;;;;;;10.00;7.10;;;34.70;63.30;;;;;;5059178;28;20120;-87
2021/09/08 09:06:31;;;;;;;13.03;7.53;;;35.40;63.00;;;;;;5058656;28;20056;-89
2021/09/08 09:09:03;;;;;;;8.70;7.28;;;34.50;62.30;;;;;;5058678;28;20055;-89
2021/09/08 09:11:31;;;;;;;11.15;6.78;;;33.70;64.20;;;;;;5064294;28;20028;-89
2021/09/08 09:13:58;;;;;;;8.23;6.78;;;33.70;63.90;;;;;;5078817;28;20063;-88
2021/09/08 09:16:27;;;;;;;8.05;6.68;;;33.40;64.40;;;;;;5074758;28;20048;-91
2021/09/08 09:18:54;;;;;;;7.50;6.80;;;32.70;66.00;;;;;;5057016;28;20486;-88
2021/09/08 09:21:26;;;;;;;7.75;7.05;;;32.60;66.70;;;;;;5075106;28;20048;-91
2021/09/08 09:23:58;;;;;;;8.75;6.50;;;33.00;66.90;;;;;;5057780;28;20066;-88
2021/09/08 09:26:45;;;;;;;9.00;6.50;;;33.50;65.20;;;;;;5057404;28;20059;-89
2021/09/08 09:29:13;;;;;;;7.82;7.10;;;34.10;63.50;;;;;;5058048;28;20477;-88
2021/09/08 09:31:54;;;;;;;7.78;6.18;;;34.60;63.80;;;;;;5057561;28;20048;-88
2021/09/08 09:34:22;;;;;;;7.13;6.53;;;35.00;62.50;;;;;;5057222;28;20084;-87
2021/09/08 09:36:53;;;;;;;10.15;6.80;;;35.20;61.70;;;;;;5057316;28;20044;-89
2021/09/08 09:39:22;;;;;;;8.90;6.80;;;35.40;61.00;;;;;;5056970;28;20481;-90
2021/09/08 09:41:49;;;;;;;9.13;6.60;;;35.00;61.60;;;;;;5057259;28;20108;-90
2021/09/08 09:44:16;;;;;;;9.35;7.05;;;35.80;60.10;;;;;;5074442;28;20053;-89
2021/09/08 09:46:47;;;;;;;7.20;6.60;;;35.10;60.40;;;;;;5056729;28;20044;-88
2021/09/08 09:49:14;;;;;;;9.40;7.47;;;35.30;61.70;;;;;;5056827;28;20055;-90
2021/09/08 09:51:42;;;;;;;6.93;6.20;;;35.60;60.70;;;;;;5073963;28;20063;-89
2021/09/08 09:54:08;;;;;;;8.57;6.80;;;35.90;60.80;;;;;;5056592;28;20095;-88
2021/09/08 09:56:36;;;;;;;9.80;7.25;;;36.50;61.10;;;;;;5056629;28;20048;-91
2021/09/08 09:59:03;;;;;;;10.45;7.50;;;35.80;60.30;;;;;;5056689;28;20135;-87
2021/09/08 10:01:31;;;;;;;7.72;7.03;;;35.50;61.50;;;;;;5074137;28;20488;-89
2021/09/08 10:03:58;;;;;;;8.02;6.57;;;35.50;62.90;;;;;;5056670;28;20053;-88
2021/09/08 10:06:25;;;;;;;9.85;7.43;;;36.30;61.60;;;;;;5056224;28;20053;-89
2021/09/08 10:08:58;;;;;;;10.95;7.30;;;36.40;60.60;;;;;;5058159;28;20049;-89
2021/09/08 10:11:32;;;;;;;17.73;6.88;;;36.20;60.90;;;;;;5056748;28;20420;-89
2021/09/08 10:14:13;;;;;;;8.10;7.30;;;37.80;57.30;;;;;;5056673;28;20143;-87
2021/09/08 10:16:44;;;;;;;7.93;7.05;;;37.80;56.90;;;;;;5056428;28;20053;-87
2021/09/08 10:19:11;;;;;;;9.25;6.60;;;38.80;54.60;;;;;;5056307;28;20048;-87
2021/09/08 10:21:44;;;;;;;8.68;6.70;;;39.60;55.70;;;;;;5073882;28;20058;-87
2021/09/08 10:24:11;;;;;;;7.28;6.60;;;41.10;53.20;;;;;;5056314;28;20058;-88
2021/09/08 10:26:38;;;;;;;7.07;6.28;;;40.70;52.80;;;;;;5073586;28;20044;-88
2021/09/08 10:29:07;;;;;;;9.85;6.78;;;42.10;50.90;;;;;;5056403;28;20059;-87
2021/09/08 10:31:41;;;;;;;7.43;6.72;;;42.80;49.80;;;;;;5065595;28;20036;-86
2021/09/08 10:34:11;;;;;;;8.07;6.80;;;41.70;49.00;;;;;;5075018;28;20048;-87
2021/09/08 10:36:39;;;;;;;7.65;6.40;;;41.70;49.10;;;;;;5057642;28;20051;-87
2021/09/08 10:39:07;;;;;;;7.68;6.18;;;41.80;49.40;;;;;;5056160;28;20070;-90
2021/09/08 10:41:40;;;;;;;16.08;7.18;;;39.70;49.50;;;;;;5055905;28;20045;-88
2021/09/08 10:44:08;;;;;;;16.00;8.43;;;38.50;52.70;;;;;;5056049;28;20082;-87
2021/09/08 10:46:53;;;;;;;10.85;6.95;;;38.50;54.00;;;;;;5055759;28;20047;-88
2021/09/08 10:49:40;;;;;;;10.43;6.75;;;37.90;53.10;;;;;;5055949;28;20055;-87
2021/09/08 10:52:08;;;;;;;8.43;6.97;;;39.30;52.30;;;;;;5055555;28;20047;-86
2021/09/08 10:54:53;;;;;;;6.45;5.85;;;39.90;51.50;;;;;;5055578;28;20044;-89
2021/09/08 10:57:42;;;;;;;6.13;5.53;;;39.30;50.60;;;;;;5073569;28;20082;-88
2021/09/08 11:00:14;;;;;;;6.70;5.65;;;38.50;50.70;;;;;;5055438;28;20139;-89
2021/09/08 11:02:42;;;;;;;6.32;5.57;;;37.20;49.90;;;;;;5055713;28;20052;-88
2021/09/08 11:05:11;;;;;;;6.47;5.72;;;36.90;48.70;;;;;;5055511;28;20097;-90
2021/09/08 11:07:39;;;;;;;6.50;5.50;;;37.00;50.70;;;;;;5055769;28;20552;-87
2021/09/08 11:10:07;;;;;;;5.22;4.68;;;36.50;52.00;;;;;;5055884;28;20499;-87
2021/09/08 11:12:45;;;;;;;5.93;5.05;;;35.90;51.30;;;;;;5056616;28;20056;-86
2021/09/08 11:15:12;;;;;;;6.68;5.30;;;35.10;50.30;;;;;;5059692;28;20500;-84
2021/09/08 11:17:40;;;;;;;6.28;4.60;;;33.90;50.80;;;;;;5077251;28;20075;-88
2021/09/08 11:20:21;;;;;;;5.60;5.07;;;33.90;50.60;;;;;;5077365;28;20054;-88
2021/09/08 11:23:09;;;;;;;5.70;4.63;;;35.50;49.90;;;;;;5059654;28;20177;-87
2021/09/08 11:25:44;;;;;;;6.63;4.75;;;34.80;51.60;;;;;;5077068;28;20048;-88
2021/09/08 11:28:12;;;;;;;6.55;5.20;;;34.50;50.20;;;;;;5077118;28;20059;-88
2021/09/08 11:30:44;;;;;;;5.72;5.22;;;33.90;50.60;;;;;;5059375;28;20092;-87
2021/09/08 11:33:15;;;;;;;9.23;6.53;;;32.40;51.30;;;;;;5059354;28;20052;-87
2021/09/08 11:35:43;;;;;;;5.68;4.97;;;32.10;53.10;;;;;;5076629;28;20131;-83
2021/09/08 11:38:18;;;;;;;5.75;4.60;;;31.50;54.00;;;;;;5058994;28;20135;-87
2021/09/08 11:40:56;;;;;;;5.88;4.82;;;31.30;53.80;;;;;;5059321;28;20040;-87
2021/09/08 11:43:49;;;;;;;5.30;4.90;;;31.10;54.00;;;;;;5059270;28;20131;-86
2021/09/08 11:46:21;;;;;;;12.73;4.95;;;31.10;53.50;;;;;;5058943;28;20078;-87
2021/09/08 11:48:51;;;;;;;5.55;5.05;;;31.40;54.00;;;;;;5059023;28;20063;-87
2021/09/08 11:51:20;;;;;;;5.07;4.68;;;31.80;53.80;;;;;;5069467;28;20139;-87
2021/09/08 11:53:49;;;;;;;5.63;4.55;;;32.00;53.50;;;;;;5079131;28;20111;-85
2021/09/08 11:56:22;;;;;;;7.43;4.85;;;31.80;53.60;;;;;;5060005;28;20132;-87
2021/09/08 11:58:53;;;;;;;6.27;4.73;;;31.90;56.40;;;;;;5058675;28;20058;-87
2021/09/08 12:01:22;;;;;;;5.55;4.97;;;31.30;53.20;;;;;;5058569;28;20287;-86
2021/09/08 12:03:53;;;;;;;4.75;4.43;;;31.60;54.50;;;;;;5058892;28;20106;-86
2021/09/08 12:06:21;;;;;;;5.90;5.40;;;31.70;56.40;;;;;;5058910;28;20052;-86
2021/09/08 12:08:52;;;;;;;5.78;5.20;;;31.90;54.50;;;;;;5057557;28;20048;-87
2021/09/08 12:11:42;;;;;;;6.70;4.82;;;31.70;54.10;;;;;;5058850;28;20094;-86
2021/09/08 12:14:38;;;;;;;5.90;5.40;;;30.90;54.20;;;;;;5058446;28;20074;-88
2021/09/08 12:17:20;;;;;;;5.22;4.82;;;30.70;55.20;;;;;;5058120;28;20056;-87
2021/09/08 12:20:07;;;;;;;9.07;5.43;;;30.00;55.10;;;;;;5058349;28;20044;-85
2021/09/08 12:22:38;;;;;;;7.70;4.97;;;29.70;55.50;;;;;;5058431;28;20045;-87
2021/09/08 12:25:23;;;;;;;5.82;5.20;;;29.40;57.80;;;;;;5075272;28;20048;-86
2021/09/08 12:27:52;;;;;;;5.30;4.90;;;29.20;58.10;;;;;;5058190;28;20052;-87
2021/09/08 12:30:19;;;;;;;9.85;5.53;;;29.00;61.00;;;;;;5058182;28;20143;-87
2021/09/08 12:32:52;;;;;;;9.88;5.75;;;28.60;58.60;;;;;;5057991;28;20064;-87
2021/09/08 12:35:39;;;;;;;;;;;28.50;58.90;;;;;;5058675;28;20549;-87
2021/09/08 12:38:27;;;;;;;5.45;5.05;;;28.50;59.80;;;;;;5058446;28;19924;-86
2021/09/08 12:41:15;;;;;;;7.53;5.40;;;28.20;58.30;;;;;;5057837;28;20048;-88
2021/09/08 12:43:55;;;;;;;7.57;5.47;;;28.00;60.20;;;;;;5057874;28;20128;-87
2021/09/08 12:46:41;;;;;;;9.88;4.80;;;27.80;60.30;;;;;;5057869;28;20091;-87